Time;durP1;ratioP1;P1;durP2;ratioP2;P2;SDS_P1;SDS_P2;PMS_P1;PMS_P2;Temp;Humidity;BMP_temperature;BMP_pressure;BME280_temperature;BME280_humidity;BME280_pressure;Samples;Min_cycle;Max_cycle;Signal;HPM_P1;HPM_P2
2021/06/15 00:00:21;;;;;;;10.52;6.80;;;;;;;;;;5119020;27;20076;-75
2021/06/15 00:02:48;;;;;;;13.00;6.85;;;;;;;;;;5125206;27;20046;-75
2021/06/15 00:05:14;;;;;;;14.40;7.17;;;;;;;;;;5122935;27;20374;-74
2021/06/15 00:07:41;;;;;;;15.02;6.65;;;;;;;;;;5108498;28;20389;-76
2021/06/15 00:10:09;;;;;;;13.52;7.63;;;;;;;;;;5110652;28;20081;-75
2021/06/15 00:12:35;;;;;;;12.40;7.30;;;;;;;;;;5118910;27;20031;-76
2021/06/15 00:15:01;;;;;;;18.55;7.50;;;;;;;;;;5124636;27;20024;-75
2021/06/15 00:17:27;;;;;;;17.77;7.22;;;;;;;;;;5111135;28;20093;-76
2021/06/15 00:19:53;;;;;;;14.02;6.93;;;;;;;;;;5111842;27;20027;-76
2021/06/15 00:22:19;;;;;;;12.30;6.85;;;;;;;;;;5110456;27;20028;-76
2021/06/15 00:24:45;;;;;;;13.43;7.30;;;;;;;;;;5115444;27;20027;-76
2021/06/15 00:27:11;;;;;;;14.68;6.93;;;;;;;;;;5110423;27;20387;-74
2021/06/15 00:29:37;;;;;;;10.38;6.65;;;;;;;;;;5115352;27;20035;-75
2021/06/15 00:32:03;;;;;;;13.13;6.68;;;;;;;;;;5119705;27;20015;-76
2021/06/15 00:34:29;;;;;;;13.38;6.55;;;;;;;;;;5126785;27;20466;-76
2021/06/15 00:36:55;;;;;;;11.88;7.32;;;;;;;;;;5113668;27;20143;-76
2021/06/15 00:39:21;;;;;;;14.70;6.78;;;;;;;;;;5110821;28;20467;-74
2021/06/15 00:41:47;;;;;;;7.75;6.65;;;;;;;;;;5128071;27;20031;-76
2021/06/15 00:44:13;;;;;;;11.30;7.20;;;;;;;;;;5122436;27;20031;-76
2021/06/15 00:46:39;;;;;;;11.80;6.68;;;;;;;;;;5109740;27;20027;-75
2021/06/15 00:49:06;;;;;;;15.23;7.22;;;;;;;;;;5110274;28;20084;-76
2021/06/15 00:51:32;;;;;;;15.52;7.00;;;;;;;;;;5115432;27;20036;-75
2021/06/15 00:53:58;;;;;;;8.82;6.25;;;;;;;;;;5110048;28;20039;-76
2021/06/15 00:56:24;;;;;;;13.48;6.13;;;;;;;;;;5120010;28;20136;-77
2021/06/15 00:58:51;;;;;;;9.32;6.15;;;;;;;;;;5129125;28;20102;-74
2021/06/15 01:01:17;;;;;;;9.45;6.90;;;;;;;;;;5111455;28;20531;-77
2021/06/15 01:03:44;;;;;;;14.40;6.53;;;;;;;;;;5115786;27;20027;-77
2021/06/15 01:06:12;;;;;;;11.75;6.32;;;;;;;;;;5133049;27;20036;-75
2021/06/15 01:08:47;;;;;;;11.50;6.22;;;;;;;;;;5125781;27;20047;-76
2021/06/15 01:11:33;;;;;;;17.60;6.72;;;;;;;;;;5120534;27;20516;-75
2021/06/15 01:14:07;;;;;;;14.07;6.35;;;;;;;;;;5118513;27;20055;-75
2021/06/15 01:16:36;;;;;;;8.15;6.07;;;;;;;;;;5127821;27;20031;-76
2021/06/15 01:19:23;;;;;;;10.85;6.13;;;;;;;;;;5119606;27;20028;-76
2021/06/15 01:21:57;;;;;;;10.77;6.47;;;;;;;;;;5129469;27;20027;-76
2021/06/15 01:24:31;;;;;;;9.10;6.10;;;;;;;;;;5115975;27;20031;-76
2021/06/15 01:27:14;;;;;;;10.15;6.50;;;;;;;;;;5130280;27;20042;-77
2021/06/15 01:29:41;;;;;;;11.65;6.35;;;;;;;;;;5125744;27;20031;-77
2021/06/15 01:32:09;;;;;;;10.90;6.72;;;;;;;;;;5132461;27;20403;-77
2021/06/15 01:34:38;;;;;;;10.98;6.80;;;;;;;;;;5130262;27;20084;-76
2021/06/15 01:37:16;;;;;;;14.98;6.03;;;;;;;;;;5124934;27;20043;-76
2021/06/15 01:39:54;;;;;;;10.65;7.10;;;;;;;;;;5116755;27;20032;-76
2021/06/15 01:42:23;;;;;;;15.05;6.40;;;;;;;;;;5119141;27;20031;-76
2021/06/15 01:44:52;;;;;;;11.10;6.55;;;;;;;;;;5130734;27;20027;-76
2021/06/15 01:47:18;;;;;;;9.18;6.18;;;;;;;;;;5118199;27;20131;-76
2021/06/15 01:49:52;;;;;;;9.32;6.45;;;;;;;;;;5122247;27;20035;-77
2021/06/15 01:52:19;;;;;;;11.10;6.45;;;;;;;;;;5119291;27;22113;-77
2021/06/15 01:54:45;;;;;;;;;;;;;;;;;;5137036;27;20027;-75
2021/06/15 01:57:13;;;;;;;8.93;6.93;;;;;;;;;;5120344;27;19990;-77
2021/06/15 01:59:41;;;;;;;11.35;6.72;;;;;;;;;;5108177;28;20220;-76
2021/06/15 02:02:07;;;;;;;7.80;6.53;;;;;;;;;;5106032;27;20027;-77
2021/06/15 02:04:35;;;;;;;10.20;6.70;;;;;;;;;;5116917;27;20042;-76
2021/06/15 02:07:02;;;;;;;8.05;6.35;;;;;;;;;;5129118;27;20031;-75
2021/06/15 02:09:31;;;;;;;12.65;5.95;;;;;;;;;;5135001;27;20051;-75
2021/06/15 02:11:57;;;;;;;8.98;6.03;;;;;;;;;;5113842;27;20034;-76
2021/06/15 02:14:26;;;;;;;16.95;6.70;;;;;;;;;;5131210;27;20378;-76
2021/06/15 02:16:54;;;;;;;9.90;6.55;;;;;;;;;;5118025;27;20011;-75
2021/06/15 02:19:21;;;;;;;10.65;6.18;;;;;;;;;;5119633;27;20031;-76
2021/06/15 02:21:49;;;;;;;10.27;6.10;;;;;;;;;;5120734;27;20203;-75
2021/06/15 02:24:15;;;;;;;10.82;6.35;;;;;;;;;;5113023;28;20353;-76
2021/06/15 02:26:43;;;;;;;12.50;7.13;;;;;;;;;;5125752;27;20024;-74
2021/06/15 02:29:10;;;;;;;9.88;6.32;;;;;;;;;;5119311;27;20549;-74
2021/06/15 02:31:45;;;;;;;11.05;6.90;;;;;;;;;;5113872;27;20031;-75
2021/06/15 02:34:13;;;;;;;13.80;6.57;;;;;;;;;;5112990;28;20423;-76
2021/06/15 02:36:42;;;;;;;11.65;6.82;;;;;;;;;;5124885;27;20462;-74
2021/06/15 02:39:10;;;;;;;11.32;6.55;;;;;;;;;;5118948;27;20370;-76
2021/06/15 02:41:38;;;;;;;10.63;6.68;;;;;;;;;;5125102;27;20032;-76
2021/06/15 02:44:04;;;;;;;10.90;6.75;;;;;;;;;;5132178;27;20094;-75
2021/06/15 02:46:33;;;;;;;16.90;7.00;;;;;;;;;;5095882;28;20051;-75
2021/06/15 02:49:00;;;;;;;12.30;7.00;;;;;;;;;;5112064;28;20046;-76
2021/06/15 02:51:31;;;;;;;10.25;6.22;;;;;;;;;;5119045;27;20031;-75
2021/06/15 02:54:04;;;;;;;10.93;6.75;;;;;;;;;;5112344;28;20036;-76
2021/06/15 02:56:33;;;;;;;9.07;6.45;;;;;;;;;;5126573;27;20381;-75
2021/06/15 02:58:59;;;;;;;15.57;6.97;;;;;;;;;;5123309;27;20023;-76
2021/06/15 03:01:25;;;;;;;9.43;6.68;;;;;;;;;;5121529;27;20031;-75
2021/06/15 03:03:51;;;;;;;12.52;6.63;;;;;;;;;;5123258;27;20027;-74
2021/06/15 03:06:17;;;;;;;16.45;7.70;;;;;;;;;;5131380;27;20019;-76
2021/06/15 03:08:43;;;;;;;16.13;6.95;;;;;;;;;;5122450;27;20038;-75
2021/06/15 03:11:09;;;;;;;11.95;6.80;;;;;;;;;;5102636;27;20104;-75
2021/06/15 03:13:41;;;;;;;13.82;6.82;;;;;;;;;;5123883;27;20027;-75
2021/06/15 03:16:08;;;;;;;10.13;6.45;;;;;;;;;;5115437;27;20030;-76
2021/06/15 03:18:34;;;;;;;;;;;;;;;;;;5123267;27;20550;-74
2021/06/15 03:21:02;;;;;;;9.70;6.95;;;;;;;;;;5119102;27;19911;-75
2021/06/15 03:23:34;;;;;;;13.52;7.70;;;;;;;;;;5122423;27;20439;-75
2021/06/15 03:26:08;;;;;;;10.68;7.30;;;;;;;;;;5128989;27;20106;-75
2021/06/15 03:28:36;;;;;;;14.43;7.90;;;;;;;;;;5119586;27;20497;-74
2021/06/15 03:31:02;;;;;;;8.35;6.95;;;;;;;;;;5124492;27;20023;-74
2021/06/15 03:33:29;;;;;;;13.15;6.50;;;;;;;;;;5121705;27;20071;-75
2021/06/15 03:36:00;;;;;;;11.35;7.05;;;;;;;;;;5108297;28;20370;-77
2021/06/15 03:38:30;;;;;;;10.30;6.97;;;;;;;;;;5126703;27;20026;-78
2021/06/15 03:40:57;;;;;;;11.63;6.95;;;;;;;;;;5116501;27;20493;-77
2021/06/15 03:43:23;;;;;;;;;;;;;;;;;;5123451;27;20034;-74
2021/06/15 03:45:57;;;;;;;17.05;8.90;;;;;;;;;;5118435;27;19990;-77
2021/06/15 03:48:24;;;;;;;19.60;9.15;;;;;;;;;;5114764;27;20074;-76
2021/06/15 03:50:52;;;;;;;16.05;8.07;;;;;;;;;;5129873;27;20077;-76
2021/06/15 03:53:19;;;;;;;15.50;8.93;;;;;;;;;;5120672;27;20072;-76
2021/06/15 03:55:46;;;;;;;20.50;9.77;;;;;;;;;;5111586;28;20028;-77
2021/06/15 03:58:13;;;;;;;22.97;10.47;;;;;;;;;;5112492;27;20102;-77
2021/06/15 04:00:43;;;;;;;23.20;11.32;;;;;;;;;;5112790;27;20031;-76
2021/06/15 04:03:10;;;;;;;21.73;10.90;;;;;;;;;;5113944;27;20027;-77
2021/06/15 04:05:36;;;;;;;;;;;;;;;;;;5114217;27;20051;-74
2021/06/15 04:08:04;;;;;;;16.15;9.02;;;;;;;;;;5111205;27;19919;-76
2021/06/15 04:10:31;;;;;;;17.55;8.48;;;;;;;;;;5118767;27;20022;-77
2021/06/15 04:12:57;;;;;;;16.23;8.52;;;;;;;;;;5114792;27;20043;-77
2021/06/15 04:15:25;;;;;;;16.27;8.48;;;;;;;;;;5110724;27;20035;-76
2021/06/15 04:17:51;;;;;;;18.52;8.07;;;;;;;;;;5121799;27;20067;-75
2021/06/15 04:20:25;;;;;;;20.00;8.43;;;;;;;;;;5120663;27;20022;-75
2021/06/15 04:22:51;;;;;;;16.55;8.02;;;;;;;;;;5124516;27;20019;-77
2021/06/15 04:25:22;;;;;;;16.57;8.33;;;;;;;;;;5120797;27;20054;-76
2021/06/15 04:27:49;;;;;;;20.63;8.63;;;;;;;;;;5110883;28;20295;-75
2021/06/15 04:30:16;;;;;;;19.27;9.15;;;;;;;;;;5092565;28;20024;-76
2021/06/15 04:32:56;;;;;;;15.73;8.02;;;;;;;;;;5113931;27;20046;-76
2021/06/15 04:35:33;;;;;;;19.73;7.95;;;;;;;;;;5125264;27;20031;-77
2021/06/15 04:38:02;;;;;;;11.43;8.20;;;;;;;;;;5113811;27;20075;-76
2021/06/15 04:40:29;;;;;;;13.52;7.72;;;;;;;;;;5113438;27;20366;-76
2021/06/15 04:42:55;;;;;;;;;;;;;;;;;;5126585;27;20039;-78
2021/06/15 04:45:32;;;;;;;14.60;7.38;;;;;;;;;;5111590;28;19905;-74
2021/06/15 04:48:06;;;;;;;18.55;8.20;;;;;;;;;;5124698;27;20122;-77
2021/06/15 04:50:33;;;;;;;16.33;8.13;;;;;;;;;;5120424;28;20011;-75
2021/06/15 04:53:01;;;;;;;13.77;8.05;;;;;;;;;;5113295;27;20051;-77
2021/06/15 04:55:28;;;;;;;16.48;7.70;;;;;;;;;;5118336;27;20049;-74
2021/06/15 04:57:54;;;;;;;;;;;;;;;;;;5117863;28;20031;-74
2021/06/15 05:00:21;;;;;;;24.40;8.13;;;;;;;;;;5113172;28;20284;-75
2021/06/15 05:02:48;;;;;;;17.08;7.85;;;;;;;;;;5119480;28;20067;-73
2021/06/15 05:05:15;;;;;;;22.17;8.52;;;;;;;;;;5130795;28;20080;-75
2021/06/15 05:07:41;;;;;;;16.05;7.80;;;;;;;;;;5099824;28;20043;-74
2021/06/15 05:10:07;;;;;;;16.38;8.00;;;;;;;;;;5111584;28;20036;-75
2021/06/15 05:12:38;;;;;;;10.15;6.18;;;;;;;;;;5112425;28;20032;-75
2021/06/15 05:15:05;;;;;;;14.77;6.93;;;;;;;;;;5119624;28;20031;-75
2021/06/15 05:17:32;;;;;;;16.70;7.88;;;;;;;;;;5126946;28;20558;-75
2021/06/15 05:19:58;;;;;;;13.82;7.68;;;;;;;;;;5117137;28;20031;-74
2021/06/15 05:22:28;;;;;;;16.50;6.30;;;;;;;;;;5129934;28;20023;-76
2021/06/15 05:24:55;;;;;;;18.77;11.38;;;;;;;;;;5122448;28;20035;-75
2021/06/15 05:27:21;;;;;;;;;;;;;;;;;;5116576;28;20065;-74
2021/06/15 05:29:47;;;;;;;11.73;6.93;;;;;;;;;;5113642;28;20353;-76
2021/06/15 05:32:13;;;;;;;14.70;6.57;;;;;;;;;;5114747;28;20521;-77
2021/06/15 05:34:40;;;;;;;12.02;5.80;;;;;;;;;;5111238;28;20031;-75
2021/06/15 05:37:07;;;;;;;15.97;6.20;;;;;;;;;;5128476;28;20066;-75
2021/06/15 05:39:33;;;;;;;14.05;5.95;;;;;;;;;;5116600;28;20361;-76
2021/06/15 05:41:59;;;;;;;8.80;5.15;;;;;;;;;;5095368;28;20474;-75
2021/06/15 05:44:25;;;;;;;7.38;5.10;;;;;;;;;;5109711;28;20046;-76
2021/06/15 05:46:51;;;;;;;9.40;5.15;;;;;;;;;;5127303;27;20027;-75
2021/06/15 05:49:17;;;;;;;10.10;4.80;;;;;;;;;;5113405;28;20095;-76
2021/06/15 05:51:43;;;;;;;10.32;5.18;;;;;;;;;;5113815;27;20096;-75
2021/06/15 05:54:09;;;;;;;9.82;4.88;;;;;;;;;;5116603;27;20035;-75
2021/06/15 05:56:35;;;;;;;9.82;5.35;;;;;;;;;;5123438;27;20080;-77
2021/06/15 05:59:01;;;;;;;8.33;4.80;;;;;;;;;;5113226;27;20042;-75
2021/06/15 06:01:27;;;;;;;10.27;5.03;;;;;;;;;;5114463;27;20034;-76
2021/06/15 06:04:02;;;;;;;8.07;5.10;;;;;;;;;;5113880;27;20070;-77
2021/06/15 06:09:14;;;;;;;9.55;5.20;;;;;;;;;;5125458;27;20038;-76
2021/06/15 06:11:40;;;;;;;9.73;4.88;;;;;;;;;;5128468;27;20038;-76
2021/06/15 06:14:06;;;;;;;6.53;4.35;;;;;;;;;;5103787;27;20036;-76
2021/06/15 06:16:33;;;;;;;9.75;4.97;;;;;;;;;;5115773;27;20085;-76
2021/06/15 06:18:59;;;;;;;;;;;;;;;;;;5119540;27;20031;-76
2021/06/15 06:21:28;;;;;;;7.13;4.43;;;;;;;;;;5094649;28;19960;-76
2021/06/15 06:23:53;;;;;;;8.98;4.55;;;;;;;;;;5112430;28;20023;-76
2021/06/15 06:26:20;;;;;;;7.88;4.50;;;;;;;;;;5125726;27;20456;-75
2021/06/15 06:28:46;;;;;;;8.05;4.75;;;;;;;;;;5113652;27;20110;-75
2021/06/15 06:31:12;;;;;;;7.90;4.63;;;;;;;;;;5118248;27;20211;-77
2021/06/15 06:33:38;;;;;;;6.47;4.28;;;;;;;;;;5127909;27;20035;-77
2021/06/15 06:36:04;;;;;;;8.57;4.28;;;;;;;;;;5115843;27;20084;-76
2021/06/15 06:38:30;;;;;;;11.50;4.78;;;;;;;;;;5102263;28;20024;-76
2021/06/15 06:40:56;;;;;;;10.45;4.63;;;;;;;;;;5112065;27;20035;-77
2021/06/15 06:43:22;;;;;;;10.27;4.55;;;;;;;;;;5116073;27;20039;-76
2021/06/15 06:45:48;;;;;;;11.85;4.32;;;;;;;;;;5113050;27;20132;-77
2021/06/15 06:48:14;;;;;;;12.10;4.25;;;;;;;;;;5120224;27;20445;-76
2021/06/15 06:50:40;;;;;;;6.45;4.25;;;;;;;;;;5114643;27;20469;-77
2021/06/15 06:53:06;;;;;;;8.20;4.30;;;;;;;;;;5098744;28;20055;-78
2021/06/15 06:55:33;;;;;;;6.63;4.25;;;;;;;;;;5091564;28;20031;-76
2021/06/15 06:58:00;;;;;;;8.45;4.45;;;;;;;;;;5107898;28;20038;-78
2021/06/15 07:00:27;;;;;;;11.18;4.28;;;;;;;;;;5102372;28;20018;-77
2021/06/15 07:02:53;;;;;;;10.83;4.07;;;;;;;;;;5096790;28;20092;-76
2021/06/15 07:05:19;;;;;;;9.02;4.35;;;;;;;;;;5107940;28;20036;-77
2021/06/15 07:07:45;;;;;;;36.38;11.35;;;;;;;;;;5092219;28;20036;-76
2021/06/15 07:10:12;;;;;;;9.73;4.50;;;;;;;;;;5093484;28;20031;-78
2021/06/15 07:12:38;;;;;;;7.00;4.40;;;;;;;;;;5101199;28;20074;-79
2021/06/15 07:15:05;;;;;;;11.50;4.53;;;;;;;;;;5091163;28;20047;-74
2021/06/15 07:17:31;;;;;;;;;;;;;;;;;;5100791;28;20451;-75
2021/06/15 07:19:57;;;;;;;8.80;4.47;;;;;;;;;;5099720;28;19908;-75
2021/06/15 07:22:23;;;;;;;8.52;4.15;;;;;;;;;;5091187;28;20044;-75
2021/06/15 07:24:49;;;;;;;10.13;4.50;;;;;;;;;;5090454;28;20035;-74
2021/06/15 07:27:15;;;;;;;9.13;4.13;;;;;;;;;;5098357;28;20027;-73
2021/06/15 07:29:41;;;;;;;9.87;4.60;;;;;;;;;;5090616;28;20747;-73
2021/06/15 07:32:07;;;;;;;8.73;3.97;;;;;;;;;;5091432;28;20020;-75
2021/06/15 07:34:33;;;;;;;12.85;4.57;;;;;;;;;;5101328;28;20084;-75
2021/06/15 07:36:59;;;;;;;9.50;4.43;;;;;;;;;;5103652;28;20482;-74
2021/06/15 07:39:25;;;;;;;8.60;4.25;;;;;;;;;;5091676;28;20107;-75
2021/06/15 07:41:51;;;;;;;12.20;4.13;;;;;;;;;;5091563;28;20043;-76
2021/06/15 07:44:17;;;;;;;10.40;4.10;;;;;;;;;;5090945;28;20036;-75
2021/06/15 07:46:43;;;;;;;12.75;4.50;;;;;;;;;;5095037;28;20308;-75
2021/06/15 07:49:09;;;;;;;8.15;4.32;;;;;;;;;;5110599;28;20078;-75
2021/06/15 07:51:36;;;;;;;11.27;4.97;;;;;;;;;;5103164;27;20467;-75
2021/06/15 07:54:02;;;;;;;7.68;4.13;;;;;;;;;;5124770;27;20067;-74
2021/06/15 07:56:28;;;;;;;11.63;4.82;;;;;;;;;;5120851;27;20046;-75
2021/06/15 07:58:54;;;;;;;10.65;4.10;;;;;;;;;;5117341;27;20035;-74
2021/06/15 08:01:20;;;;;;;8.15;4.32;;;;;;;;;;5116274;27;20030;-74
2021/06/15 08:03:46;;;;;;;7.13;4.13;;;;;;;;;;5123425;27;20030;-74
2021/06/15 08:06:12;;;;;;;8.23;4.10;;;;;;;;;;5131851;27;20054;-75
2021/06/15 08:08:38;;;;;;;9.82;5.00;;;;;;;;;;5119938;27;20453;-74
2021/06/15 08:11:04;;;;;;;8.30;4.47;;;;;;;;;;5097406;27;20431;-74
2021/06/15 08:13:31;;;;;;;9.20;4.93;;;;;;;;;;5104566;27;20146;-75
2021/06/15 08:15:57;;;;;;;10.52;4.45;;;;;;;;;;5117731;27;20036;-76
2021/06/15 08:18:24;;;;;;;7.07;4.30;;;;;;;;;;5127021;27;20019;-74
2021/06/15 08:20:53;;;;;;;9.52;4.70;;;;;;;;;;5091752;28;20449;-74
2021/06/15 08:23:19;;;;;;;15.05;4.82;;;;;;;;;;5118445;27;20026;-74
2021/06/15 08:25:45;;;;;;;15.02;4.78;;;;;;;;;;5101095;28;20035;-74
2021/06/15 08:28:11;;;;;;;8.00;4.45;;;;;;;;;;5110966;28;20028;-74
2021/06/15 08:30:37;;;;;;;6.57;4.32;;;;;;;;;;5110136;27;20244;-74
2021/06/15 08:33:04;;;;;;;7.03;4.20;;;;;;;;;;5096903;27;20019;-75
2021/06/15 08:35:30;;;;;;;11.55;4.38;;;;;;;;;;5122290;27;20035;-75
2021/06/15 08:37:56;;;;;;;9.13;4.10;;;;;;;;;;5122319;27;20118;-74
2021/06/15 08:40:23;;;;;;;7.80;4.55;;;;;;;;;;5122464;27;20023;-75
2021/06/15 08:42:50;;;;;;;10.35;4.63;;;;;;;;;;5127000;27;20405;-75
2021/06/15 08:45:17;;;;;;;12.85;4.78;;;;;;;;;;5110593;28;20035;-76
2021/06/15 08:47:45;;;;;;;10.45;4.35;;;;;;;;;;5110089;28;20036;-74
2021/06/15 08:50:13;;;;;;;9.40;4.57;;;;;;;;;;5110764;28;20042;-75
2021/06/15 08:52:39;;;;;;;9.57;4.70;;;;;;;;;;5109782;28;20039;-76
2021/06/15 08:55:06;;;;;;;10.68;4.65;;;;;;;;;;5130151;27;20031;-76
2021/06/15 08:57:33;;;;;;;11.57;4.55;;;;;;;;;;5104136;28;20031;-75
2021/06/15 09:00:01;;;;;;;13.95;4.80;;;;;;;;;;5110577;28;20031;-76
2021/06/15 09:02:27;;;;;;;13.98;4.80;;;;;;;;;;5109499;28;20035;-75
2021/06/15 09:04:53;;;;;;;9.35;4.45;;;;;;;;;;5118352;28;20370;-76
2021/06/15 09:07:19;;;;;;;11.25;4.55;;;;;;;;;;5110274;28;20036;-77
2021/06/15 09:09:49;;;;;;;8.33;4.43;;;;;;;;;;5110154;28;20367;-76
2021/06/15 09:12:16;;;;;;;9.88;4.32;;;;;;;;;;5110627;28;20164;-75
2021/06/15 09:14:45;;;;;;;10.50;4.78;;;;;;;;;;5125739;28;20374;-74
2021/06/15 09:17:13;;;;;;;12.13;4.72;;;;;;;;;;5130118;28;20042;-76
2021/06/15 09:19:40;;;;;;;10.25;4.75;;;;;;;;;;5113836;28;20123;-77
2021/06/15 09:22:06;;;;;;;;;;;;;;;;;;5103863;27;20057;-76
2021/06/15 09:24:44;;;;;;;11.13;4.67;;;;;;;;;;5128448;27;19987;-76
2021/06/15 09:27:10;;;;;;;9.07;4.82;;;;;;;;;;5121784;27;20623;-76
2021/06/15 09:29:53;;;;;;;8.63;4.80;;;;;;;;;;5122573;27;20039;-75
2021/06/15 09:32:20;;;;;;;9.15;4.72;;;;;;;;;;5114369;27;20023;-76
2021/06/15 09:34:51;;;;;;;11.68;5.13;;;;;;;;;;5121013;27;20478;-75
2021/06/15 09:37:17;;;;;;;14.35;5.25;;;;;;;;;;5128424;27;20423;-75
2021/06/15 09:39:43;;;;;;;11.88;5.28;;;;;;;;;;5125778;27;20118;-75
2021/06/15 09:42:13;;;;;;;9.80;4.70;;;;;;;;;;5124375;27;20024;-75
2021/06/15 09:44:39;;;;;;;7.60;4.68;;;;;;;;;;5126987;27;20026;-75
2021/06/15 09:47:06;;;;;;;9.03;5.30;;;;;;;;;;5119547;27;20072;-75
2021/06/15 09:49:32;;;;;;;11.88;6.07;;;;;;;;;;5119485;27;20083;-75
2021/06/15 09:52:13;;;;;;;10.90;5.47;;;;;;;;;;5121155;27;20456;-75
2021/06/15 09:54:40;;;;;;;14.95;6.15;;;;;;;;;;5100532;28;20024;-75
2021/06/15 09:57:06;;;;;;;;;;;;;;;;;;5113145;28;20448;-75
2021/06/15 09:59:32;;;;;;;14.77;5.57;;;;;;;;;;5113584;27;20006;-75
2021/06/15 10:01:58;;;;;;;15.50;5.70;;;;;;;;;;5113829;27;20102;-76
2021/06/15 10:04:25;;;;;;;7.97;5.10;;;;;;;;;;5125855;27;20023;-75
2021/06/15 10:06:53;;;;;;;11.60;5.40;;;;;;;;;;5124909;27;20019;-75
2021/06/15 10:09:30;;;;;;;11.55;5.97;;;;;;;;;;5131690;27;20096;-74
2021/06/15 10:11:57;;;;;;;15.50;6.28;;;;;;;;;;5125031;27;20044;-74
2021/06/15 10:14:23;;;;;;;;;;;;;;;;;;5125489;27;20084;-75
2021/06/15 10:16:49;;;;;;;10.15;6.38;;;;;;;;;;5117823;27;19912;-75
2021/06/15 10:19:15;;;;;;;13.95;6.18;;;;;;;;;;5114098;27;20028;-75
2021/06/15 10:21:41;;;;;;;16.37;6.17;;;;;;;;;;5112591;28;20172;-76
2021/06/15 10:24:07;;;;;;;15.43;6.15;;;;;;;;;;5121605;27;20533;-75
2021/06/15 10:26:34;;;;;;;11.47;6.30;;;;;;;;;;5113179;28;20477;-76
2021/06/15 10:29:01;;;;;;;15.35;6.70;;;;;;;;;;5112196;27;20043;-75
2021/06/15 10:31:32;;;;;;;9.88;6.25;;;;;;;;;;5123237;27;20031;-76
2021/06/15 10:33:58;;;;;;;17.83;7.18;;;;;;;;;;5116492;27;20034;-74
2021/06/15 10:36:43;;;;;;;9.88;5.90;;;;;;;;;;5121004;27;20101;-75
2021/06/15 10:39:16;;;;;;;10.55;5.47;;;;;;;;;;5126556;27;20023;-75
2021/06/15 10:41:42;;;;;;;12.05;6.00;;;;;;;;;;5119974;27;20039;-74
2021/06/15 10:44:09;;;;;;;12.52;6.07;;;;;;;;;;5112954;27;20031;-74
2021/06/15 10:46:39;;;;;;;12.80;5.70;;;;;;;;;;5131907;27;20456;-75
2021/06/15 10:49:07;;;;;;;12.23;5.70;;;;;;;;;;5114419;27;20505;-75
2021/06/15 10:51:37;;;;;;;15.32;7.38;;;;;;;;;;5120877;27;20019;-76
2021/06/15 10:54:04;;;;;;;14.43;6.45;;;;;;;;;;5110512;27;20092;-74
2021/06/15 10:56:33;;;;;;;20.40;6.63;;;;;;;;;;5115805;27;20039;-75
2021/06/15 10:59:07;;;;;;;13.27;7.10;;;;;;;;;;5132275;27;20034;-75
2021/06/15 11:01:34;;;;;;;14.07;6.97;;;;;;;;;;5122748;27;20023;-76
2021/06/15 11:04:26;;;;;;;14.07;7.28;;;;;;;;;;5118027;27;20466;-75
2021/06/15 11:06:52;;;;;;;14.43;6.88;;;;;;;;;;5108483;28;20039;-74
2021/06/15 11:09:21;;;;;;;15.07;6.88;;;;;;;;;;5128419;27;20027;-76
2021/06/15 11:12:10;;;;;;;11.88;7.57;;;;;;;;;;5128728;27;20043;-76
2021/06/15 11:14:37;;;;;;;16.08;7.70;;;;;;;;;;5129985;27;20047;-75
2021/06/15 11:17:06;;;;;;;15.15;8.02;;;;;;;;;;5118856;27;20016;-75
2021/06/15 11:19:33;;;;;;;15.57;8.18;;;;;;;;;;5120442;27;20031;-76
2021/06/15 11:22:08;;;;;;;18.80;8.07;;;;;;;;;;5127609;27;20024;-75
2021/06/15 11:24:50;;;;;;;12.25;7.38;;;;;;;;;;5111849;28;20118;-76
2021/06/15 11:27:19;;;;;;;16.35;7.43;;;;;;;;;;5113004;28;20019;-76
2021/06/15 11:29:45;;;;;;;16.67;8.40;;;;;;;;;;5112939;27;20042;-76
2021/06/15 11:32:17;;;;;;;11.65;7.80;;;;;;;;;;5129831;27;20050;-75
2021/06/15 11:35:04;;;;;;;16.48;7.40;;;;;;;;;;5115293;27;20123;-75
2021/06/15 11:37:46;;;;;;;11.30;7.10;;;;;;;;;;5111842;28;20034;-75
2021/06/15 11:40:14;;;;;;;16.02;7.75;;;;;;;;;;5112154;28;20019;-75
2021/06/15 11:42:40;;;;;;;15.40;7.80;;;;;;;;;;5117353;27;20393;-75
2021/06/15 11:45:29;;;;;;;13.52;7.90;;;;;;;;;;5121269;27;20043;-76
2021/06/15 11:47:56;;;;;;;13.45;7.85;;;;;;;;;;5123395;27;20531;-76
2021/06/15 11:50:29;;;;;;;14.00;8.45;;;;;;;;;;5123244;27;20321;-75
2021/06/15 11:53:13;;;;;;;19.98;7.97;;;;;;;;;;5123980;27;20385;-76
2021/06/15 11:55:46;;;;;;;22.33;9.10;;;;;;;;;;5111505;27;20132;-75
2021/06/15 11:58:15;;;;;;;18.80;8.77;;;;;;;;;;5111588;28;20418;-76
2021/06/15 12:00:56;;;;;;;20.90;8.05;;;;;;;;;;5111654;27;20019;-77
2021/06/15 12:03:23;;;;;;;12.13;7.95;;;;;;;;;;5112213;27;20092;-75
2021/06/15 12:05:50;;;;;;;13.77;8.02;;;;;;;;;;5110396;28;20032;-75
2021/06/15 12:08:17;;;;;;;18.90;8.27;;;;;;;;;;5110907;27;20031;-75
2021/06/15 12:10:43;;;;;;;12.40;7.95;;;;;;;;;;5127673;27;20122;-75
2021/06/15 12:13:13;;;;;;;12.38;7.72;;;;;;;;;;5126331;27;20119;-76
2021/06/15 12:15:39;;;;;;;16.15;7.72;;;;;;;;;;5110548;27;20194;-76
2021/06/15 12:18:10;;;;;;;13.80;8.20;;;;;;;;;;5111442;27;20201;-76
2021/06/15 12:20:38;;;;;;;16.25;8.98;;;;;;;;;;5114918;27;20033;-77
2021/06/15 12:23:22;;;;;;;13.25;7.50;;;;;;;;;;5093188;28;20141;-76
2021/06/15 12:25:48;;;;;;;18.40;8.38;;;;;;;;;;5109614;27;20460;-77
2021/06/15 12:28:16;;;;;;;11.25;7.72;;;;;;;;;;5111348;27;20450;-75
2021/06/15 12:30:44;;;;;;;17.42;7.75;;;;;;;;;;5127089;27;20590;-76
2021/06/15 12:33:10;;;;;;;12.20;7.45;;;;;;;;;;5123179;27;20606;-76
2021/06/15 12:35:36;;;;;;;13.15;7.50;;;;;;;;;;5114618;27;20042;-77
2021/06/15 12:38:10;;;;;;;15.50;7.43;;;;;;;;;;5109902;28;20048;-75
2021/06/15 12:40:37;;;;;;;13.40;7.63;;;;;;;;;;5125622;27;20126;-77
2021/06/15 12:43:03;;;;;;;13.13;7.07;;;;;;;;;;5121839;27;20564;-74
2021/06/15 12:45:28;;;;;;;;;;;;;;;;;;5117983;27;20032;-73
2021/06/15 12:47:54;;;;;;;16.30;8.07;;;;;;;;;;5109395;28;20277;-74
2021/06/15 12:50:21;;;;;;;16.45;6.97;;;;;;;;;;5111368;28;20059;-73
2021/06/15 12:52:47;;;;;;;14.85;7.28;;;;;;;;;;5110348;28;20151;-73
2021/06/15 12:55:14;;;;;;;16.75;6.95;;;;;;;;;;5121326;27;20156;-78
2021/06/15 12:57:41;;;;;;;14.80;7.35;;;;;;;;;;5126325;27;20051;-76
2021/06/15 13:00:08;;;;;;;11.55;7.20;;;;;;;;;;5109885;28;20041;-77
2021/06/15 13:02:36;;;;;;;14.85;7.53;;;;;;;;;;5123408;28;20031;-75
2021/06/15 13:05:04;;;;;;;10.68;7.53;;;;;;;;;;5116886;28;20508;-75
2021/06/15 13:07:33;;;;;;;12.68;7.60;;;;;;;;;;5126301;28;20043;-75
2021/06/15 13:10:14;;;;;;;14.23;7.10;;;;;;;;;;5124669;28;20511;-78
2021/06/15 13:12:45;;;;;;;12.43;7.22;;;;;;;;;;5111734;28;20042;-76
2021/06/15 13:15:15;;;;;;;9.73;6.85;;;;;;;;;;5117550;28;20026;-78
2021/06/15 13:17:41;;;;;;;11.13;7.40;;;;;;;;;;5111170;28;20027;-76
2021/06/15 13:20:08;;;;;;;12.63;7.22;;;;;;;;;;5110925;28;20047;-77
2021/06/15 13:22:40;;;;;;;11.13;7.50;;;;;;;;;;5124287;28;20072;-77
2021/06/15 13:25:07;;;;;;;11.98;8.27;;;;;;;;;;5100719;28;20501;-77
2021/06/15 13:27:49;;;;;;;19.20;7.80;;;;;;;;;;5110606;28;20085;-77
2021/06/15 13:30:19;;;;;;;9.98;8.15;;;;;;;;;;5109158;28;20040;-79
2021/06/15 13:32:46;;;;;;;18.35;7.60;;;;;;;;;;5111200;28;20032;-78
2021/06/15 13:35:12;;;;;;;13.02;7.95;;;;;;;;;;5123071;28;20087;-77
2021/06/15 13:37:53;;;;;;;11.95;7.20;;;;;;;;;;5122888;28;20366;-79
2021/06/15 13:40:26;;;;;;;12.60;7.53;;;;;;;;;;5109340;28;20062;-81
2021/06/15 13:42:55;;;;;;;11.88;7.15;;;;;;;;;;5110161;28;20075;-78
2021/06/15 13:45:25;;;;;;;15.13;8.20;;;;;;;;;;5112350;28;20031;-79
2021/06/15 13:47:51;;;;;;;14.20;7.10;;;;;;;;;;5129885;28;20030;-79
2021/06/15 13:50:20;;;;;;;13.05;8.05;;;;;;;;;;5118174;28;21245;-79
2021/06/15 13:52:46;;;;;;;11.73;7.35;;;;;;;;;;5118173;28;20071;-80
2021/06/15 13:55:12;;;;;;;14.93;7.05;;;;;;;;;;5126810;28;20023;-80
2021/06/15 13:57:39;;;;;;;13.43;7.10;;;;;;;;;;5109922;28;20085;-80
2021/06/15 14:00:10;;;;;;;12.52;7.53;;;;;;;;;;5112455;28;20444;-79
2021/06/15 14:02:36;;;;;;;13.07;7.60;;;;;;;;;;5122572;28;20023;-78
2021/06/15 14:05:02;;;;;;;13.40;7.88;;;;;;;;;;5124614;28;20539;-76
2021/06/15 14:07:28;;;;;;;14.02;7.80;;;;;;;;;;5096650;28;20390;-77
2021/06/15 14:09:54;;;;;;;15.95;7.03;;;;;;;;;;5114731;27;20028;-75
2021/06/15 14:12:20;;;;;;;12.15;7.68;;;;;;;;;;5116911;27;20037;-75
2021/06/15 14:14:46;;;;;;;14.25;7.25;;;;;;;;;;5130077;27;20076;-76
2021/06/15 14:17:12;;;;;;;11.02;7.47;;;;;;;;;;5123722;27;20020;-76
2021/06/15 14:19:38;;;;;;;12.80;7.30;;;;;;;;;;5113046;27;20062;-75
2021/06/15 14:22:04;;;;;;;12.15;7.63;;;;;;;;;;5116892;27;20472;-75
2021/06/15 14:24:30;;;;;;;10.32;7.90;;;;;;;;;;5097612;28;20493;-74
2021/06/15 14:27:02;;;;;;;10.23;7.38;;;;;;;;;;5119591;27;20038;-75
2021/06/15 14:29:31;;;;;;;13.48;7.18;;;;;;;;;;5112194;28;20114;-75
2021/06/15 14:31:58;;;;;;;14.13;7.60;;;;;;;;;;5113458;27;20044;-76
2021/06/15 14:34:25;;;;;;;12.57;7.55;;;;;;;;;;5112023;27;20020;-76
2021/06/15 14:36:51;;;;;;;13.80;7.68;;;;;;;;;;5112925;27;20469;-75
2021/06/15 14:39:17;;;;;;;12.63;7.85;;;;;;;;;;5113255;27;20034;-75
2021/06/15 14:41:43;;;;;;;15.00;7.40;;;;;;;;;;5116760;27;20118;-75
2021/06/15 14:44:09;;;;;;;11.40;7.28;;;;;;;;;;5121193;27;20488;-80